Current Weather

Silvio Pettirossi Intl

Silvio Pettirossi Intl, Paraguay (SGAS)

Report from: Friday, June 21, 2024 8:00 PM -04
Current time: Friday, June 21, 2024 8:48 PM -04

Nearby weather – Weather history – Daily summaries
Weather forecast

Temperature26.0°C (78.8°F)
Dew point13.0°C (55.4°F)
Winds 10 kts (5.1 m/s, 11.5 mph) Northeast (50°)
Clouds Sky clear
Altimeter29.74 in.Hg (1007 mB)
Relative humidity45 %
Density altitude1,691 ft. (515 m)
Remarks Ceiling and visibility OK
Flight conditions Visual Meteorological Conditions
Raw dataSGAS 220000Z 05010KT CAVOK 26/13 Q1007
An error has occurred. This application may no longer respond until reloaded. Reload 🗙